Ice — ZCOE9 — position and weather

sailwx.info

Track history (hours):
 
Tides and Currents Weather Stations Pressure Air Temp Water Temp Dewpoint Dewpoint Depression Visibility Wind Speed Wind Dir Waves Ship Positions

Ice

Last reported at 2014-Jul-14 21:21 UTC. Time now 2014-Jul-22 21:35 UTC.
Position N 37°48' E 024°23'.
Warning: this ship's position is 8 days out of date.

Length 90 m; draft 5 m.

Type: Other ship. MMSI: 319411000.

Date/timePositionNaut miles runAvg speedWind from/ knotsBaromVisibWave heightAir tempDewpointWater temp
2014-Jul-14 21:21N 37°48' E 024°23'129 2.9
2014-Jul-13 01:17N 39°53' E 023°43'1214.1
2014-Jul-13 00:24N 39°56' E 023°59'1113.4
2014-Jul-12 23:33N 40°07' E 024°02'12 3.9
2014-Jul-12 20:23N 40°19' E 023°59'0 0.0
2014-Jul-12 15:18N 40°19' E 023°59'911.6
2014-Jul-12 14:32N 40°14' E 024°09'1211.4
2014-Jul-12 13:27N 40°07' E 024°23'910.1
2014-Jul-12 12:33N 40°16' E 024°19'6 6.5
2014-Jul-12 11:33N 40°20' E 024°12'0 0.1
2014-Jul-12 10:33N 40°20' E 024°12'0 0.0
2014-Jul-12 09:33N 40°20' E 024°12'0 0.0
2014-Jul-12 08:33N 40°20' E 024°12'0 0.0
2014-Jul-12 07:33N 40°20' E 024°12'0 0.0
2014-Jul-12 06:33N 40°20' E 024°12'0 0.0
2014-Jul-12 05:31N 40°20' E 024°12'0 0.1
2014-Jul-12 04:31N 40°20' E 024°12'0 0.0
2014-Jul-12 03:33N 40°20' E 024°12'2 2.4
2014-Jul-12 02:33N 40°20' E 024°15'1110.8
2014-Jul-12 01:33N 40°12' E 024°25'1111.1
2014-Jul-12 00:32N 40°03' E 024°17'1414.5
2014-Jul-11 23:33N 39°56' E 024°01'33 0.8
2014-Jul-10 06:27N 39°36' E 023°26'1516.0
2014-Jul-10 05:32N 39°23' E 023°37'12713.8
2014-Jul-09 20:20N 37°18' E 023°58'1516.7
2014-Jul-09 19:26N 37°05' E 023°48'1516.4
2014-Jul-09 18:30N 36°52' E 023°37'1916.4
2014-Jul-09 17:19N 36°36' E 023°24'  
2014-Jul-06 05:33N 37°51' E 023°07'0 0.0
2014-Jul-06 04:31N 37°51' E 023°07'16 4.8
2014-Jul-06 01:05N 37°50' E 023°28'5 9.3
2014-Jul-06 00:33N 37°51' E 023°34'7 7.4
2014-Jul-05 23:33N 37°49' E 023°43'3 2.1
2014-Jul-05 22:04N 37°48' E 023°47'0 0.0
2014-Jul-05 20:17N 37°48' E 023°47'59 3.1
2014-Jul-05 01:26N 37°36' E 025°00'1213.3
2014-Jul-05 00:33N 37°26' E 025°09'9 9.1
2014-Jul-04 23:33N 37°24' E 025°20'0 0.3
2014-Jul-04 22:33N 37°24' E 025°19'0 0.0
2014-Jul-04 21:33N 37°24' E 025°19'  
Track history (hours):
 
Tides and Currents Weather Stations Pressure Air Temp Water Temp Dewpoint Dewpoint Depression Visibility Wind Speed Wind Dir Waves Ship Positions

Ice

Last reported at 2014-Jul-14 21:21 UTC. Time now 2014-Jul-22 21:35 UTC.
Position N 37°48' E 024°23'.
Warning: this ship's position is 8 days out of date.

Length 90 m; draft 5 m.

Type: Other ship. MMSI: 319411000.

Date/timePositionNaut miles runAvg speedWind from/ knotsBaromVisibWave heightAir tempDewpointWater temp
2014-Jul-14 21:21N 37°48' E 024°23'129 2.9
2014-Jul-13 01:17N 39°53' E 023°43'1214.1
2014-Jul-13 00:24N 39°56' E 023°59'1113.4
2014-Jul-12 23:33N 40°07' E 024°02'12 3.9
2014-Jul-12 20:23N 40°19' E 023°59'0 0.0
2014-Jul-12 15:18N 40°19' E 023°59'911.6
2014-Jul-12 14:32N 40°14' E 024°09'1211.4
2014-Jul-12 13:27N 40°07' E 024°23'910.1
2014-Jul-12 12:33N 40°16' E 024°19'6 6.5
2014-Jul-12 11:33N 40°20' E 024°12'0 0.1
2014-Jul-12 10:33N 40°20' E 024°12'0 0.0
2014-Jul-12 09:33N 40°20' E 024°12'0 0.0
2014-Jul-12 08:33N 40°20' E 024°12'0 0.0
2014-Jul-12 07:33N 40°20' E 024°12'0 0.0
2014-Jul-12 06:33N 40°20' E 024°12'0 0.0
2014-Jul-12 05:31N 40°20' E 024°12'0 0.1
2014-Jul-12 04:31N 40°20' E 024°12'0 0.0
2014-Jul-12 03:33N 40°20' E 024°12'2 2.4
2014-Jul-12 02:33N 40°20' E 024°15'1110.8
2014-Jul-12 01:33N 40°12' E 024°25'1111.1
2014-Jul-12 00:32N 40°03' E 024°17'1414.5
2014-Jul-11 23:33N 39°56' E 024°01'33 0.8
2014-Jul-10 06:27N 39°36' E 023°26'1516.0
2014-Jul-10 05:32N 39°23' E 023°37'12713.8
2014-Jul-09 20:20N 37°18' E 023°58'1516.7
2014-Jul-09 19:26N 37°05' E 023°48'1516.4
2014-Jul-09 18:30N 36°52' E 023°37'1916.4
2014-Jul-09 17:19N 36°36' E 023°24'  
2014-Jul-06 05:33N 37°51' E 023°07'0 0.0
2014-Jul-06 04:31N 37°51' E 023°07'16 4.8
2014-Jul-06 01:05N 37°50' E 023°28'5 9.3
2014-Jul-06 00:33N 37°51' E 023°34'7 7.4
2014-Jul-05 23:33N 37°49' E 023°43'3 2.1
2014-Jul-05 22:04N 37°48' E 023°47'0 0.0
2014-Jul-05 20:17N 37°48' E 023°47'59 3.1
2014-Jul-05 01:26N 37°36' E 025°00'1213.3
2014-Jul-05 00:33N 37°26' E 025°09'9 9.1
2014-Jul-04 23:33N 37°24' E 025°20'0 0.3
2014-Jul-04 22:33N 37°24' E 025°19'0 0.0
2014-Jul-04 21:33N 37°24' E 025°19'  

Dump ship's entire track history